Latest Weather Observations for Wudinna Airport

IDS60801

Issued at 5:35 pm CST Monday 21 April 2014 (issued every 30 minutes, with the page automatically refreshed every 10 minutes)

About weather observations | Map of weather stations | Latest weather observations for SA | Other Formats
Station Details ID: 018083 Name: WUDINNA AERO Lat: -33.04 Lon: 135.45 Height: 86.4 m
Data from the previous 72 hours. | See also: Recent months at Wudinna Airport
Date/Time
CST
Temp
°C
App
Temp
°C
Dew
Point
Rel
Hum
%
Delta-T
°C
Wind Press
QNH
hPa
Press
MSL
hPa
Rain
since 9 am
mm
Dir
 
Spd
km/h
Gust
km/h
Spd
kts
Gust
kts
21/05:30pm 29.6 24.8 2.8 18 13.5 NNW 17 20 9 11 1009.8 - 0.0
21/05:00pm 30.2 23.5 1.6 16 14.1 NW 26 35 14 19 1009.9 - 0.0
21/04:30pm 30.9 23.4 1.3 15 14.6 NW 30 41 16 22 1009.9 - 0.0
21/04:00pm 31.6 23.8 1.8 15 14.9 NNW 32 41 17 22 1010.0 - 0.0
21/03:37pm 31.7 24.3 1.9 15 14.9 NNW 30 50 16 27 1010.1 - 0.0
21/03:30pm 31.4 24.3 3.4 17 14.3 NNW 30 43 16 23 1010.2 - 0.0
21/03:00pm 31.3 23.4 2.5 16 14.5 NW 33 52 18 28 1010.4 1010.2 0.0
21/02:59pm 31.3 23.4 2.5 16 14.5 NW 33 52 18 28 1010.4 - 0.0
21/02:30pm 30.8 22.6 2.9 17 14.1 NNW 35 50 19 27 1010.6 - 0.0
21/02:02pm 31.6 23.8 2.7 16 14.7 NNW 33 52 18 28 1010.7 - 0.0
21/02:00pm 31.5 23.3 2.7 16 14.6 NNW 35 44 19 24 1010.7 - 0.0
21/01:30pm 30.3 21.8 3.4 18 13.7 NNW 37 48 20 26 1011.0 - 0.0
21/01:00pm 31.0 21.5 3.9 18 14.0 NNW 43 61 23 33 1011.4 - 0.0
21/12:30pm 30.4 20.8 3.4 18 13.8 NNW 43 63 23 34 1011.7 - 0.0
21/12:11pm 30.7 21.0 2.9 17 14.1 NNW 43 61 23 33 1012.0 - 0.0
21/12:00pm 29.7 19.2 3.6 19 13.3 NNW 48 63 26 34 1012.2 1012.0 0.0
21/11:30am 29.6 20.0 3.5 19 13.3 NNW 43 61 23 33 1012.6 - 0.0
21/11:29am 29.6 20.2 4.3 20 13.0 NNW 43 61 23 33 1012.6 - 0.0
21/11:00am 29.1 19.0 3.9 20 12.8 NNW 46 61 25 33 1012.8 - 0.0
21/10:48am 28.4 18.7 4.0 21 12.4 NNW 44 63 24 34 1012.9 - 0.0
21/10:30am 28.1 17.6 3.7 21 12.3 NNW 48 61 26 33 1013.1 - 0.0
21/10:00am 27.2 18.2 4.3 23 11.6 NNW 41 61 22 33 1013.2 - 0.0
21/09:30am 26.0 17.4 4.5 25 10.9 NNW 39 57 21 31 1013.5 - 0.0
21/09:12am 25.7 17.9 4.8 26 10.6 NNW 35 54 19 29 1013.7 - 0.0
21/09:00am 25.4 18.0 5.1 27 10.3 N 33 48 18 26 1013.5 1013.3 0.0
21/08:31am 24.0 17.3 5.4 30 9.4 N 30 48 16 26 1013.5 - 0.0
21/08:30am 23.9 16.8 5.3 30 9.4 N 32 48 17 26 1013.4 - 0.0
21/08:24am 23.6 16.9 5.5 31 9.2 N 30 48 16 26 1013.4 - 0.0
21/08:00am 22.4 16.5 5.8 34 8.4 N 26 35 14 19 1013.4 - 0.0
21/07:30am 21.3 15.4 5.6 36 7.8 N 26 35 14 19 1013.2 - 0.0
21/07:00am 19.7 14.4 6.8 43 6.5 N 24 30 13 16 1012.9 - 0.0
21/06:30am 19.8 14.1 6.9 43 6.5 N 26 32 14 17 1012.9 - 0.0
21/06:00am 20.0 14.8 7.1 43 6.6 N 24 30 13 16 1012.8 1012.6 0.0
21/05:30am 20.0 14.5 7.4 44 6.5 N 26 33 14 18 1012.7 - 0.0
21/05:00am 20.2 14.6 7.2 43 6.7 N 26 32 14 17 1012.6 - 0.0
21/04:30am 20.6 15.1 7.6 43 6.7 N 26 32 14 17 1012.5 - 0.0
21/04:00am 20.9 15.0 7.5 42 6.9 N 28 39 15 21 1012.4 - 0.0
21/03:30am 20.8 15.0 7.8 43 6.8 N 28 37 15 20 1012.4 - 0.0
21/03:00am 21.1 15.3 8.0 43 6.8 N 28 35 15 19 1012.7 1012.5 0.0
21/02:30am 21.4 15.2 8.0 42 7.0 N 30 37 16 20 1012.9 - 0.0
21/02:00am 21.7 16.0 8.2 42 7.1 N 28 39 15 21 1013.2 - 0.0
21/01:30am 21.1 15.3 8.0 43 6.8 N 28 35 15 19 1013.4 - 0.0
21/01:00am 21.3 15.8 7.5 41 7.1 N 26 33 14 18 1013.5 - 0.0
21/12:30am 21.3 15.4 7.5 41 7.1 N 28 37 15 20 1013.5 - 0.0
21/12:00am 20.7 15.5 7.3 42 6.9 NNE 24 33 13 18 1013.5 1013.3 0.0
 
Date/Time
CST
Temp
°C
App
Temp
°C
Dew
Point
Rel
Hum
%
Delta-T
°C
Wind Press
QNH
hPa
Press
MSL
hPa
Rain
since 9 am
mm
Dir
 
Spd
km/h
Gust
km/h
Spd
kts
Gust
kts
20/11:30pm 21.2 15.7 7.4 41 7.1 NNE 26 35 14 19 1013.7 - 0.0
20/11:00pm 21.6 16.7 7.1 39 7.5 NNE 22 30 12 16 1014.0 - 0.0
20/10:30pm 22.0 16.7 7.0 38 7.7 NNE 24 37 13 20 1014.1 - 0.0
20/10:00pm 21.6 16.7 7.1 39 7.5 NNE 22 32 12 17 1014.4 - 0.0
20/09:30pm 21.3 17.1 7.5 41 7.1 NNE 19 26 10 14 1014.7 - 0.0
20/09:00pm 20.5 16.7 7.5 43 6.7 NE 17 22 9 12 1015.0 1014.8 0.0
20/08:30pm 20.2 16.6 6.9 42 6.8 NE 15 19 8 10 1015.0 - 0.0
20/08:00pm 20.2 16.8 7.6 44 6.5 NE 15 17 8 9 1015.0 - 0.0
20/07:30pm 19.8 16.4 7.5 45 6.3 NE 15 19 8 10 1014.9 - 0.0
20/07:00pm 20.6 17.7 6.5 40 7.1 NE 11 15 6 8 1014.9 - 0.0
20/06:30pm 23.5 19.8 6.3 33 8.8 ENE 15 20 8 11 1014.7 - 0.0
20/06:00pm 25.0 21.7 6.2 30 9.7 E 13 17 7 9 1014.6 1014.4 0.0
20/05:30pm 26.7 23.7 6.2 27 10.7 E 11 19 6 10 1014.4 - 0.0
20/05:00pm 28.0 26.5 5.0 23 11.9 E 2 6 1 3 1014.6 - 0.0
20/04:30pm 28.5 26.2 4.7 22 12.3 NW 6 11 3 6 1014.6 - 0.0
20/04:00pm 28.7 26.5 5.5 23 12.1 ENE 6 9 3 5 1014.7 - 0.0
20/03:30pm 27.8 25.6 5.4 24 11.6 N 6 9 3 5 1014.9 - 0.0
20/03:00pm 28.2 25.1 5.7 24 11.8 NNW 11 22 6 12 1015.0 1014.8 0.0
20/02:30pm 28.3 26.0 5.8 24 11.8 N 7 13 4 7 1015.1 - 0.0
20/02:00pm 27.5 24.1 5.7 25 11.4 N 13 19 7 10 1015.3 - 0.0
20/01:30pm 27.9 25.4 6.6 26 11.3 NE 9 19 5 10 1015.7 - 0.0
20/01:00pm 27.4 24.4 6.2 26 11.1 NNW 11 19 6 10 1016.2 - 0.0
20/12:30pm 27.2 24.6 6.0 26 11.1 NNE 9 24 5 13 1016.8 - 0.0
20/12:00pm 26.0 22.5 5.6 27 10.5 N 13 19 7 10 1017.3 1017.2 0.0
20/11:30am 25.6 21.8 5.8 28 10.2 N 15 19 8 10 1017.7 - 0.0
20/11:00am 25.8 22.1 6.4 29 10.1 N 15 20 8 11 1018.0 - 0.0
20/10:30am 24.3 20.0 5.1 29 9.7 NNE 17 24 9 13 1018.1 - 0.0
20/10:00am 22.7 17.9 4.7 31 8.9 NNE 19 26 10 14 1018.2 - 0.0
20/09:30am 21.6 17.9 4.7 33 8.3 NE 13 19 7 10 1018.6 - 0.0
20/09:00am 18.7 15.8 6.5 45 6.1 N 11 15 6 8 1018.6 1018.5 0.0
20/08:30am 16.2 15.8 8.4 60 4.0 CALM 0 0 0 0 1018.5 - 0.0
20/08:00am 13.8 12.6 8.0 68 2.9 W 4 11 2 6 1018.6 - 0.0
20/07:30am 11.0 9.0 7.3 78 1.8 NE 7 9 4 5 1017.7 - 0.0
20/07:00am 9.6 6.3 6.5 81 1.4 NE 13 15 7 8 1017.3 - 0.0
20/06:30am 9.5 6.3 6.9 84 1.2 NE 13 15 7 8 1017.4 - 0.0
20/06:00am 8.7 5.8 6.3 85 1.1 NE 11 13 6 7 1017.3 1017.2 0.0
20/05:30am 8.8 5.9 6.4 85 1.1 NNE 11 13 6 7 1017.3 - 0.0
20/05:00am 9.1 6.2 6.7 85 1.1 NE 11 13 6 7 1017.4 - 0.0
20/04:30am 9.3 6.8 6.6 83 1.3 NE 9 11 5 6 1017.5 - 0.0
20/04:00am 8.8 6.2 6.2 84 1.2 NNE 9 11 5 6 1017.7 - 0.0
20/03:30am 8.8 5.9 6.6 86 1.0 NNE 11 13 6 7 1017.6 - 0.0
20/03:00am 8.9 5.9 6.0 82 1.3 NE 11 13 6 7 1017.7 1017.6 0.0
20/02:30am 8.6 5.6 5.9 83 1.2 NNE 11 13 6 7 1017.9 - 0.0
20/02:00am 8.5 5.4 5.4 81 1.4 NE 11 13 6 7 1018.0 - 0.0
20/01:30am 8.0 5.3 5.5 84 1.1 NNE 9 11 5 6 1018.4 - 0.0
20/01:00am 7.3 4.0 4.6 83 1.2 NNE 11 11 6 6 1018.4 - 0.0
20/12:30am 8.0 4.8 4.9 81 1.4 NE 11 13 6 7 1018.6 - 0.0
20/12:00am 8.2 6.3 4.8 79 1.5 N 4 7 2 4 1018.7 1018.6 0.0
 
Date/Time
CST
Temp
°C
App
Temp
°C
Dew
Point
Rel
Hum
%
Delta-T
°C
Wind Press
QNH
hPa
Press
MSL
hPa
Rain
since 9 am
mm
Dir
 
Spd
km/h
Gust
km/h
Spd
kts
Gust
kts
19/11:30pm 8.7 6.4 4.9 77 1.7 N 6 7 3 4 1018.8 - 0.0
19/11:00pm 8.7 5.8 4.9 77 1.7 NNE 9 11 5 6 1019.0 - 0.0
19/10:30pm 9.2 8.1 5.0 75 1.9 CALM 0 0 0 0 1019.3 - 0.0
19/10:00pm 10.1 9.1 5.5 73 2.1 CALM 0 0 0 0 1019.1 - 0.0
19/09:30pm 11.6 10.6 5.7 67 2.8 CALM 0 0 0 0 1019.1 - 0.0
19/09:00pm 12.8 11.5 6.2 64 3.1 SSW 2 7 1 4 1018.9 1018.8 0.0
19/08:30pm 14.3 12.3 6.2 58 3.9 S 6 7 3 4 1018.8 - 0.0
19/08:00pm 14.9 12.3 6.2 56 4.2 S 9 11 5 6 1018.7 - 0.0
19/07:30pm 16.3 13.0 6.2 51 4.9 S 13 19 7 10 1018.4 - 0.0
19/07:00pm 17.5 13.4 6.4 48 5.5 S 17 22 9 12 1018.1 - 0.0
19/06:30pm 18.6 14.4 7.4 48 5.7 SSW 19 24 10 13 1017.7 - 0.0
19/06:00pm 20.2 16.0 8.2 46 6.2 SSW 20 26 11 14 1017.4 1017.3 0.0
19/05:30pm 21.2 17.5 8.1 43 6.9 S 17 22 9 12 1017.3 - 0.0
19/05:00pm 22.7 19.3 7.7 38 7.9 SSW 15 24 8 13 1017.0 - 0.0
19/04:30pm 23.5 19.8 8.0 37 8.2 WSW 17 24 9 13 1017.0 - 0.0
19/04:00pm 23.9 20.5 7.5 35 8.6 SW 15 26 8 14 1017.2 - 0.0
19/03:30pm 23.2 20.8 8.5 39 7.8 SW 11 17 6 9 1017.4 - 0.0
19/03:00pm 23.4 19.8 8.3 38 8.0 WSW 17 28 9 15 1017.6 1017.5 0.0
19/02:30pm 23.5 20.4 8.8 39 7.9 W 15 26 8 14 1017.9 - 0.0
19/02:00pm 22.6 19.8 8.7 41 7.4 SW 13 22 7 12 1018.1 - 0.0
19/01:30pm 22.2 20.1 8.3 41 7.3 SW 9 15 5 8 1018.5 - 0.0
19/01:00pm 22.7 20.6 8.4 40 7.6 NW 9 15 5 8 1019.2 - 0.0
19/12:30pm 22.0 20.4 8.2 41 7.3 ESE 6 13 3 7 1019.9 - 0.0
19/12:00pm 20.2 18.3 7.6 44 6.5 NNE 7 13 4 7 1020.6 1020.4 0.0
19/11:30am 19.8 17.5 7.5 45 6.3 ENE 9 15 5 8 1021.3 - 0.0
19/11:00am 20.3 18.2 8.3 46 6.3 ENE 9 17 5 9 1021.6 - 0.0
19/10:30am 17.7 15.7 8.8 56 4.6 E 9 15 5 8 1022.0 - 0.0
19/10:00am 17.1 15.4 9.8 62 3.9 E 9 15 5 8 1022.3 - 0.0
19/09:30am 15.8 14.1 9.7 67 3.2 E 9 13 5 7 1022.6 - 0.0
19/09:00am 14.6 12.8 9.4 71 2.7 SE 9 11 5 6 1022.8 1022.6 0.0
19/08:30am 14.0 12.6 9.4 74 2.4 ESE 7 11 4 6 1022.7 - 0.0
19/08:00am 13.2 11.9 9.1 76 2.1 SE 6 7 3 4 1022.6 - 0.0
19/07:30am 12.5 12.3 9.0 79 1.8 CALM 0 0 0 0 1022.3 - 0.0
19/07:00am 11.8 11.6 9.0 83 1.4 CALM 0 0 0 0 1022.3 - 0.0
19/06:30am 11.6 11.4 9.2 85 1.2 CALM 0 0 0 0 1022.0 - 0.0
19/06:00am 11.2 10.9 8.8 85 1.2 CALM 0 0 0 0 1022.0 1021.8 0.0
19/05:30am 10.7 10.4 8.6 87 1.0 CALM 0 0 0 0 1022.0 - 0.0
19/05:00am 10.1 9.7 8.2 88 0.9 CALM 0 0 0 0 1022.0 - 0.0
19/04:30am 9.4 8.2 8.2 92 0.6 NNE 4 7 2 4 1021.9 - 0.0
19/04:00am 7.6 6.7 5.9 89 0.8 CALM 0 0 0 0 1021.8 - 0.0
19/03:30am 8.0 7.1 6.1 88 0.9 CALM 0 0 0 0 1021.7 - 0.0
19/03:00am 9.0 8.3 7.0 87 0.9 CALM 0 0 0 0 1021.9 1021.7 0.0
19/02:30am 9.7 7.9 7.1 84 1.2 ESE 6 7 3 4 1022.1 - 0.0
19/02:00am 11.1 9.5 8.0 81 1.5 E 6 7 3 4 1022.3 - 0.0
19/01:30am 12.6 11.1 8.5 76 2.0 ESE 6 7 3 4 1022.7 - 0.0
19/01:00am 12.8 11.5 9.1 78 1.9 NNE 6 7 3 4 1022.9 - 0.0
19/12:30am 11.7 10.3 8.9 83 1.4 NNE 6 6 3 3 1023.0 - 0.0
19/12:00am 9.7 7.8 6.6 81 1.4 NE 6 7 3 4 1023.1 1022.9 0.0
 
Date/Time
CST
Temp
°C
App
Temp
°C
Dew
Point
Rel
Hum
%
Delta-T
°C
Wind Press
QNH
hPa
Press
MSL
hPa
Rain
since 9 am
mm
Dir
 
Spd
km/h
Gust
km/h
Spd
kts
Gust
kts
18/11:30pm 10.8 9.4 7.1 78 1.8 E 4 6 2 3 1023.0 - 0.0
18/11:00pm 12.9 11.2 8.4 74 2.2 ESE 7 11 4 6 1023.1 - 0.0
18/10:30pm 13.4 11.4 8.5 72 2.5 ESE 9 13 5 7 1023.3 - 0.0
18/10:00pm 14.1 11.7 8.5 69 2.8 ESE 11 15 6 8 1023.4 - 0.0
18/09:30pm 14.9 11.9 9.1 68 3.0 ESE 15 17 8 9 1023.4 - 0.0
18/09:00pm 15.3 12.3 9.2 67 3.1 ESE 15 20 8 11 1023.3 1023.1 0.0
18/08:30pm 15.7 12.8 9.8 68 3.1 ESE 15 19 8 10 1023.1 - 0.0
18/08:00pm 16.2 13.3 9.6 65 3.4 ESE 15 19 8 10 1023.0 - 0.0
18/07:30pm 17.0 14.2 10.1 64 3.7 SE 15 22 8 12 1022.9 - 0.0
18/07:00pm 18.0 14.0 10.4 61 4.1 SE 22 32 12 17 1022.6 - 0.0
18/06:30pm 20.0 16.2 9.0 49 5.8 S 19 24 10 13 1022.1 - 0.0
18/06:00pm 20.8 17.0 9.1 47 6.2 S 19 28 10 15 1021.9 1021.7 0.0

Other Formats:

Comma delimited format used in spreadsheet applications
http://www.bom.gov.au/fwo/IDS60801/IDS60801.95654.axf

JavaScript Object Notation format (JSON) in row-major order
http://www.bom.gov.au/fwo/IDS60801/IDS60801.95654.json